Time;durP1;ratioP1;P1;durP2;ratioP2;P2;SDS_P1;SDS_P2;PMS_P1;PMS_P2;Temp;Humidity;BMP_temperature;BMP_pressure;BME280_temperature;BME280_humidity;BME280_pressure;Samples;Min_cycle;Max_cycle;Signal;HPM_P1;HPM_P2
2023/09/24 00:01:06;;;;;;;3.70;3.40;;;;;;;7.50;100.00;97581.75;4934902;28;20693;-57
2023/09/24 00:03:35;;;;;;;3.73;3.43;;;;;;;7.48;100.00;97572.31;4938672;28;20216;-55
2023/09/24 00:06:05;;;;;;;4.43;3.40;;;;;;;7.52;100.00;97576.28;4933142;28;20238;-58
2023/09/24 00:08:33;;;;;;;3.63;3.03;;;;;;;7.54;100.00;97576.97;4938035;28;20217;-59
2023/09/24 00:11:02;;;;;;;2.87;2.77;;;;;;;7.53;100.00;97584.06;4935206;28;20434;-58
2023/09/24 00:13:33;;;;;;;6.70;3.80;;;;;;;7.49;100.00;97585.34;4936841;28;20227;-58
2023/09/24 00:16:04;;;;;;;4.03;3.57;;;;;;;7.50;100.00;97586.16;4934526;28;20213;-58
2023/09/24 00:18:32;;;;;;;3.50;3.20;;;;;;;7.47;100.00;97592.59;4942338;28;20207;-57
2023/09/24 00:21:01;;;;;;;6.40;3.83;;;;;;;7.50;100.00;97594.06;4932008;28;20205;-58
2023/09/24 00:23:29;;;;;;;3.50;3.30;;;;;;;7.52;100.00;97589.47;4938953;28;20300;-57
2023/09/24 00:25:57;;;;;;;3.57;3.23;;;;;;;7.50;100.00;97597.56;4805593;28;20222;-55
2023/09/24 00:28:25;;;;;;;4.03;3.70;;;;;;;7.43;100.00;97593.88;4941407;28;20294;-56
2023/09/24 00:30:55;;;;;;;5.60;3.70;;;;;;;7.45;100.00;97599.00;4932129;28;20348;-58
2023/09/24 00:33:23;;;;;;;5.23;3.73;;;;;;;7.40;100.00;97599.47;4940478;28;20655;-60
2023/09/24 00:35:52;;;;;;;3.80;3.50;;;;;;;7.39;100.00;97600.44;4933143;28;20275;-59
2023/09/24 00:38:21;;;;;;;3.53;3.33;;;;;;;7.36;100.00;97609.47;4939763;28;20773;-58
2023/09/24 00:40:48;;;;;;;3.77;3.57;;;;;;;7.35;100.00;97607.81;4933057;28;20803;-58
2023/09/24 00:43:27;;;;;;;4.50;3.80;;;;;;;7.34;100.00;97602.69;4939929;28;20214;-58
2023/09/24 00:45:55;;;;;;;3.00;2.80;;;;;;;7.35;100.00;97605.19;4933671;28;20753;-58
2023/09/24 00:48:24;;;;;;;5.27;4.30;;;;;;;7.34;100.00;97598.25;4938012;28;20227;-60
2023/09/24 00:50:53;;;;;;;3.30;3.10;;;;;;;7.32;100.00;97596.75;4934562;28;20211;-58
2023/09/24 00:53:22;;;;;;;3.57;3.27;;;;;;;7.32;100.00;97602.88;4938848;28;20218;-59
2023/09/24 00:55:50;;;;;;;3.67;3.37;;;;;;;7.32;100.00;97602.03;4803479;28;20225;-57
2023/09/24 00:58:18;;;;;;;3.77;3.47;;;;;;;7.21;100.00;97600.47;4938107;28;20235;-58
2023/09/24 01:00:46;;;;;;;4.60;3.83;;;;;;;7.22;100.00;97591.59;4937327;28;20266;-58
2023/09/24 01:03:14;;;;;;;3.17;2.97;;;;;;;7.10;100.00;97602.34;4937943;28;20228;-59
2023/09/24 01:05:43;;;;;;;4.13;3.73;;;;;;;7.14;100.00;97602.88;4936084;28;20212;-56
2023/09/24 01:08:11;;;;;;;3.77;3.40;;;;;;;7.06;100.00;97610.72;4937885;28;20230;-58
2023/09/24 01:10:40;;;;;;;3.80;3.57;;;;;;;7.02;100.00;97614.63;4933111;28;20363;-58
2023/09/24 01:13:07;;;;;;;3.60;3.30;;;;;;;7.04;100.00;97610.84;4882860;28;20957;-58
2023/09/24 01:15:35;;;;;;;3.73;3.17;;;;;;;6.96;100.00;97616.06;4955315;28;20206;-59
2023/09/24 01:18:05;;;;;;;3.67;3.37;;;;;;;6.91;100.00;97613.88;4950381;28;20223;-59
2023/09/24 01:20:33;;;;;;;3.90;3.60;;;;;;;6.95;100.00;97614.41;4956899;28;20203;-58
2023/09/24 01:23:04;;;;;;;4.03;3.20;;;;;;;6.90;100.00;97612.22;4939497;28;21209;-57
2023/09/24 01:25:34;;;;;;;3.80;3.50;;;;;;;6.89;100.00;97618.44;4940528;28;20316;-57
2023/09/24 01:28:04;;;;;;;4.03;3.70;;;;;;;6.84;100.00;97617.28;4814083;28;20246;-58
2023/09/24 01:30:31;;;;;;;3.83;3.53;;;;;;;6.84;100.00;97617.28;4944784;28;20642;-56
2023/09/24 01:32:59;;;;;;;3.77;3.47;;;;;;;6.79;100.00;97620.34;4935574;28;20271;-57
2023/09/24 01:35:27;;;;;;;3.27;3.00;;;;;;;6.77;100.00;97633.63;4942399;28;20225;-56
2023/09/24 01:37:57;;;;;;;3.67;3.47;;;;;;;6.78;100.00;97631.84;4935162;28;20226;-57
2023/09/24 01:40:27;;;;;;;3.83;3.53;;;;;;;6.76;100.00;97637.25;4941341;28;20207;-58
2023/09/24 01:42:57;;;;;;;3.70;3.40;;;;;;;6.72;100.00;97625.34;4938169;28;20299;-59
2023/09/24 01:45:25;;;;;;;3.93;3.63;;;;;;;6.75;100.00;97634.78;4938275;28;20211;-58
2023/09/24 01:47:54;;;;;;;4.07;3.77;;;;;;;6.64;100.00;97634.03;4935995;28;20321;-57
2023/09/24 01:50:26;;;;;;;4.20;3.40;;;;;;;6.66;100.00;97634.69;4940758;28;20203;-56
2023/09/24 01:52:57;;;;;;;4.30;4.00;;;;;;;6.64;100.00;97643.72;4937531;28;20262;-59
2023/09/24 01:55:27;;;;;;;4.00;3.70;;;;;;;6.66;100.00;97647.88;4940291;28;20282;-58
2023/09/24 01:57:55;;;;;;;3.47;3.27;;;;;;;6.64;100.00;97649.81;4939462;28;20317;-57
2023/09/24 02:00:22;;;;;;;3.80;3.50;;;;;;;6.62;100.00;97664.09;4941971;28;20210;-57
2023/09/24 02:02:51;;;;;;;4.20;3.80;;;;;;;6.60;100.00;97660.78;4807234;28;21503;-57
2023/09/24 02:05:19;;;;;;;4.13;3.83;;;;;;;6.60;100.00;97658.97;4938651;28;20270;-58
2023/09/24 02:07:48;;;;;;;3.93;3.70;;;;;;;6.55;100.00;97666.47;4939783;28;20223;-58
2023/09/24 02:10:18;;;;;;;3.97;3.67;;;;;;;6.51;100.00;97668.59;4940115;28;20207;-56
2023/09/24 02:12:47;;;;;;;3.43;3.23;;;;;;;6.49;100.00;97664.44;4937658;28;20306;-59
2023/09/24 02:15:18;;;;;;;2.90;2.80;;;;;;;6.52;100.00;97677.31;4940310;28;20207;-58
2023/09/24 02:17:48;;;;;;;3.47;3.27;;;;;;;6.47;100.00;97674.28;4939073;28;20781;-59
2023/09/24 02:20:25;;;;;;;4.00;3.40;;;;;;;6.43;100.00;97675.56;4941003;28;20591;-56
2023/09/24 02:22:56;;;;;;;4.03;3.63;;;;;;;6.34;100.00;97675.47;4936904;28;20222;-59
2023/09/24 02:25:25;;;;;;;3.87;3.43;;;;;;;6.35;100.00;97671.00;4942218;28;20864;-57
2023/09/24 02:27:55;;;;;;;4.43;3.50;;;;;;;6.41;100.00;97693.28;4937485;28;20310;-59
2023/09/24 02:30:24;;;;;;;5.77;3.77;;;;;;;6.44;100.00;97693.00;4940507;28;20313;-56
2023/09/24 02:32:57;;;;;;;5.47;4.20;;;;;;;6.43;100.00;97693.97;4937702;28;20445;-55
2023/09/24 02:35:26;;;;;;;4.10;3.80;;;;;;;6.44;100.00;97704.38;4942089;28;20230;-60
2023/09/24 02:37:54;;;;;;;3.80;3.50;;;;;;;6.40;100.00;97710.06;4813610;28;20241;-59
2023/09/24 02:40:23;;;;;;;3.53;3.23;;;;;;;6.38;100.00;97707.56;4940028;28;20207;-58
2023/09/24 02:42:53;;;;;;;3.57;3.37;;;;;;;6.35;100.00;97710.47;4938450;28;20230;-57
2023/09/24 02:45:22;;;;;;;4.20;3.80;;;;;;;6.31;100.00;97715.22;4952724;28;20270;-58
2023/09/24 02:47:51;;;;;;;4.37;3.23;;;;;;;6.29;100.00;97709.28;4933798;28;20273;-58
2023/09/24 02:50:21;;;;;;;3.73;3.07;;;;;;;6.27;100.00;97716.50;4941244;28;20226;-57
2023/09/24 02:52:50;;;;;;;3.17;2.93;;;;;;;6.22;100.00;97716.06;4938947;28;20427;-56
2023/09/24 02:55:19;;;;;;;3.30;3.10;;;;;;;6.16;100.00;97725.38;4940556;28;20225;-56
2023/09/24 02:57:48;;;;;;;3.50;3.30;;;;;;;6.18;100.00;97717.31;4938023;28;20695;-58
2023/09/24 03:00:18;;;;;;;3.90;3.60;;;;;;;6.19;100.00;97734.78;4939820;28;20199;-58
2023/09/24 03:02:47;;;;;;;3.77;3.57;;;;;;;6.21;100.00;97740.72;4936209;28;20294;-58
2023/09/24 03:05:20;;;;;;;3.63;3.43;;;;;;;6.23;100.00;97750.16;4937522;28;20231;-60
2023/09/24 03:07:49;;;;;;;3.10;3.00;;;;;;;6.15;100.00;97754.44;4808304;28;20765;-57
2023/09/24 03:10:18;;;;;;;3.87;3.57;;;;;;;6.11;100.00;97753.91;4938534;28;20725;-59
2023/09/24 03:12:47;;;;;;;3.17;2.97;;;;;;;6.00;100.00;97751.41;4938286;28;20238;-59
2023/09/24 03:15:15;;;;;;;3.07;2.87;;;;;;;5.96;100.00;97752.66;4875299;28;20207;-56
2023/09/24 03:17:46;;;;;;;3.30;3.10;;;;;;;5.96;100.00;97756.13;4939487;28;20493;-56
2023/09/24 03:20:16;;;;;;;2.97;2.77;;;;;;;5.92;100.00;97750.31;4935162;28;20215;-56
2023/09/24 03:22:46;;;;;;;2.70;2.53;;;;;;;5.88;100.00;97756.00;4936559;28;20291;-60
2023/09/24 03:25:17;;;;;;;3.87;3.20;;;;;;;5.81;100.00;97760.97;4935314;28;20530;-59
2023/09/24 03:27:45;;;;;;;3.30;3.10;;;;;;;5.86;100.00;97765.81;4937538;28;20309;-57
2023/09/24 03:30:17;;;;;;;3.20;3.00;;;;;;;5.85;100.00;97770.25;4933484;28;20618;-57
2023/09/24 03:32:46;;;;;;;3.30;3.10;;;;;;;5.80;100.00;97767.22;4939551;28;20242;-59
2023/09/24 03:35:18;;;;;;;2.90;2.70;;;;;;;5.78;100.00;97772.59;4935894;28;20206;-60
2023/09/24 03:37:47;;;;;;;3.87;3.67;;;;;;;5.83;100.00;97773.97;4938220;28;20687;-61
2023/09/24 03:40:16;;;;;;;3.50;3.30;;;;;;;5.83;100.00;97772.19;4806372;28;20671;-60
2023/09/24 03:42:45;;;;;;;4.00;3.57;;;;;;;5.80;100.00;97775.91;4940178;28;20222;-57
2023/09/24 03:45:15;;;;;;;3.83;3.53;;;;;;;5.82;100.00;97781.03;4935443;28;20227;-60
2023/09/24 03:47:44;;;;;;;3.33;3.13;;;;;;;5.83;100.00;97777.44;4941251;28;20227;-60
2023/09/24 03:50:13;;;;;;;3.77;3.50;;;;;;;5.80;100.00;97773.28;4932685;28;20825;-58
2023/09/24 03:52:43;;;;;;;3.60;3.30;;;;;;;5.77;100.00;97781.44;4941373;28;20294;-59
2023/09/24 03:55:11;;;;;;;3.87;3.63;;;;;;;5.75;100.00;97785.22;4936612;28;20329;-57
2023/09/24 03:57:39;;;;;;;3.70;3.50;;;;;;;5.74;100.00;97791.44;4937652;28;20227;-60
2023/09/24 04:00:10;;;;;;;4.97;4.27;;;;;;;5.78;100.00;97798.06;4932579;28;20219;-57
2023/09/24 04:02:39;;;;;;;4.53;4.13;;;;;;;5.72;100.00;97796.81;4937310;28;20207;-59
2023/09/24 04:05:09;;;;;;;3.97;3.77;;;;;;;5.71;100.00;97804.84;4934289;28;20424;-60
2023/09/24 04:07:38;;;;;;;4.30;4.00;;;;;;;5.64;100.00;97791.41;4939864;28;20246;-60
2023/09/24 04:10:08;;;;;;;3.90;3.70;;;;;;;5.59;100.00;97794.44;4807621;28;20821;-57
2023/09/24 04:12:36;;;;;;;4.77;4.47;;;;;;;5.60;100.00;97803.19;4942193;28;20206;-57
2023/09/24 04:15:06;;;;;;;3.60;3.40;;;;;;;5.57;100.00;97801.66;4935508;28;20226;-59
2023/09/24 04:17:33;;;;;;;4.97;3.23;;;;;;;5.62;100.00;97815.22;4939143;28;20230;-59
2023/09/24 04:20:03;;;;;;;3.37;3.17;;;;;;;5.57;100.00;97808.72;4934977;28;20214;-58
2023/09/24 04:22:30;;;;;;;3.70;3.40;;;;;;;5.60;100.00;97808.44;4937195;28;20429;-59
2023/09/24 04:24:59;;;;;;;4.83;4.43;;;;;;;5.59;100.00;97810.22;4932971;28;20306;-59
2023/09/24 04:27:28;;;;;;;4.77;3.87;;;;;;;5.54;100.00;97815.06;4937808;28;20317;-56
2023/09/24 04:29:56;;;;;;;4.27;3.87;;;;;;;5.55;100.00;97810.66;4934958;28;20432;-60
2023/09/24 04:32:23;;;;;;;4.13;3.83;;;;;;;5.53;100.00;97817.84;4936167;28;20307;-59
2023/09/24 04:34:54;;;;;;;3.70;3.40;;;;;;;5.52;100.00;97814.38;4935711;28;20541;-58
2023/09/24 04:37:22;;;;;;;4.00;3.80;;;;;;;5.50;100.00;97814.53;4890923;28;21900;-60
2023/09/24 04:39:50;;;;;;;4.27;3.53;;;;;;;5.48;100.00;97821.69;4925819;28;20278;-61
2023/09/24 04:42:18;;;;;;;3.40;3.20;;;;;;;5.54;100.00;97820.31;4800578;28;21121;-60
2023/09/24 04:44:47;;;;;;;3.63;3.40;;;;;;;5.55;100.00;97816.72;4939798;28;20244;-58
2023/09/24 04:47:14;;;;;;;3.60;3.30;;;;;;;5.52;100.00;97819.63;4934634;28;20223;-57
2023/09/24 04:49:42;;;;;;;2.97;2.87;;;;;;;5.50;100.00;97819.78;4940368;28;20202;-59
2023/09/24 04:52:10;;;;;;;3.10;2.90;;;;;;;5.46;100.00;97823.63;4932611;28;20429;-59
2023/09/24 04:54:37;;;;;;;3.23;3.03;;;;;;;5.42;100.00;97821.41;4877357;28;20439;-59
2023/09/24 04:57:07;;;;;;;3.40;3.20;;;;;;;5.39;100.00;97824.31;4941104;28;20242;-60
2023/09/24 04:59:35;;;;;;;3.53;3.23;;;;;;;5.38;100.00;97833.97;4938113;28;20199;-61
2023/09/24 05:02:05;;;;;;;3.33;3.13;;;;;;;5.35;100.00;97842.13;4938964;28;20207;-59
2023/09/24 05:04:33;;;;;;;2.93;2.80;;;;;;;5.35;100.00;97844.78;4937114;28;20639;-60
2023/09/24 05:07:01;;;;;;;2.90;2.80;;;;;;;5.34;100.00;97851.00;4940676;28;20477;-59
2023/09/24 05:09:30;;;;;;;3.33;3.03;;;;;;;5.22;100.00;97847.63;4892171;28;20206;-60
2023/09/24 05:11:57;;;;;;;8.13;4.43;;;;;;;5.20;100.00;97842.53;4935764;28;20301;-61
2023/09/24 05:14:25;;;;;;;4.03;3.70;;;;;;;5.18;100.00;97841.00;4838576;28;20705;-59
2023/09/24 05:16:54;;;;;;;13.03;4.07;;;;;;;5.02;100.00;97842.31;4941403;28;20230;-61
2023/09/24 05:19:23;;;;;;;3.43;2.70;;;;;;;5.07;100.00;97841.91;4938326;28;20217;-58
2023/09/24 05:21:51;;;;;;;6.63;3.50;;;;;;;5.22;100.00;97848.47;4939567;28;20306;-60
2023/09/24 05:24:18;;;;;;;3.37;3.07;;;;;;;5.29;100.00;97856.63;4935326;28;20238;-60
2023/09/24 05:26:46;;;;;;;2.83;2.70;;;;;;;5.41;100.00;97860.00;4939610;28;20242;-60
2023/09/24 05:29:14;;;;;;;2.73;2.63;;;;;;;5.50;100.00;97866.25;4933468;28;20659;-58
2023/09/24 05:31:41;;;;;;;4.30;3.50;;;;;;;5.54;100.00;97865.00;4936235;28;20218;-58
2023/09/24 05:34:10;;;;;;;8.73;3.77;;;;;;;5.53;100.00;97865.97;4932806;28;20707;-59
2023/09/24 05:36:39;;;;;;;4.63;2.97;;;;;;;5.58;100.00;97871.66;4936139;28;20224;-59
2023/09/24 05:39:09;;;;;;;3.40;3.20;;;;;;;5.70;100.00;97880.25;4887837;28;21170;-58
2023/09/24 05:41:37;;;;;;;4.30;2.87;;;;;;;5.75;100.00;97872.78;4925476;28;20306;-58
2023/09/24 05:44:05;;;;;;;3.50;3.20;;;;;;;5.61;100.00;97883.72;4896623;28;20203;-58
2023/09/24 05:46:34;;;;;;;2.43;2.33;;;;;;;5.65;100.00;97875.41;4924093;28;20449;-58
2023/09/24 05:49:05;;;;;;;2.77;2.67;;;;;;;5.65;100.00;97872.78;4878705;28;20219;-57
2023/09/24 05:51:33;;;;;;;2.90;2.70;;;;;;;5.72;100.00;97880.97;4883097;28;20265;-58
2023/09/24 05:54:02;;;;;;;2.50;2.40;;;;;;;5.77;100.00;97891.09;4939644;28;20255;-60
2023/09/24 05:56:30;;;;;;;2.60;2.50;;;;;;;5.86;100.00;97898.16;4937564;28;20223;-60
2023/09/24 05:58:58;;;;;;;3.03;2.83;;;;;;;5.80;100.00;97899.50;4940347;28;20210;-59
2023/09/24 06:01:25;;;;;;;2.83;2.73;;;;;;;5.89;100.00;97899.69;4938301;28;20222;-58
2023/09/24 06:03:53;;;;;;;2.73;2.63;;;;;;;5.89;100.00;97897.06;4940811;28;20199;-56
2023/09/24 06:06:21;;;;;;;2.40;2.30;;;;;;;5.93;100.00;97901.06;4939915;28;20847;-59
2023/09/24 06:08:49;;;;;;;2.70;2.60;;;;;;;5.96;100.00;97898.16;4939864;28;20294;-60
2023/09/24 06:11:18;;;;;;;2.87;2.67;;;;;;;5.92;100.00;97894.97;4919815;28;20207;-59
2023/09/24 06:13:46;;;;;;;3.40;2.97;;;;;;;6.08;100.00;97912.06;4918540;28;20222;-58
2023/09/24 06:16:14;;;;;;;2.90;2.80;;;;;;;6.08;100.00;97910.25;4942241;28;20205;-61
2023/09/24 06:18:42;;;;;;;4.40;2.80;;;;;;;6.11;100.00;97914.41;4939603;28;20213;-60
2023/09/24 06:21:16;;;;;;;2.50;2.40;;;;;;;6.18;100.00;97909.41;4896585;28;21053;-58
2023/09/24 06:23:44;;;;;;;2.57;2.47;;;;;;;6.26;100.00;97901.69;4897077;28;20434;-56
2023/09/24 06:26:13;;;;;;;4.90;3.10;;;;;;;6.36;100.00;97915.66;4940272;28;20285;-62
2023/09/24 06:28:42;;;;;;;2.67;2.47;;;;;;;6.42;100.00;97908.97;4936330;28;20443;-59
2023/09/24 06:31:26;;;;;;;3.50;3.20;;;;;;;6.54;100.00;97903.59;4935625;28;20222;-59
2023/09/24 06:33:54;;;;;;;3.33;3.13;;;;;;;6.59;100.00;97914.53;4941477;28;20203;-60
2023/09/24 06:36:22;;;;;;;3.47;3.17;;;;;;;6.70;100.00;97913.56;4935596;28;20231;-60
2023/09/24 06:38:51;;;;;;;10.73;3.63;;;;;;;6.79;100.00;97917.97;4941239;28;20262;-60
2023/09/24 06:41:18;;;;;;;3.10;2.90;;;;;;;6.86;100.00;97920.88;4935223;28;20211;-59
2023/09/24 06:43:47;;;;;;;9.57;3.87;;;;;;;6.90;100.00;97919.59;4939984;28;20243;-58
2023/09/24 06:46:17;;;;;;;3.37;3.17;;;;;;;7.08;100.00;97924.97;4920646;28;20334;-57
2023/09/24 06:48:45;;;;;;;3.10;3.00;;;;;;;7.25;100.00;97941.84;4929058;28;20217;-62
2023/09/24 06:51:13;;;;;;;3.30;3.20;;;;;;;7.34;100.00;97934.84;4904910;28;20246;-58
2023/09/24 06:53:40;;;;;;;4.20;3.33;;;;;;;7.46;100.00;97931.06;4902314;28;21257;-59
2023/09/24 06:56:08;;;;;;;3.23;2.83;;;;;;;7.50;100.00;97934.22;4942161;28;20623;-60
2023/09/24 06:58:36;;;;;;;5.97;3.00;;;;;;;7.42;100.00;97934.13;4892118;28;20218;-62
2023/09/24 07:01:06;;;;;;;3.20;3.10;;;;;;;7.53;100.00;97929.50;4929980;28;20210;-60
2023/09/24 07:03:33;;;;;;;3.13;3.03;;;;;;;7.61;100.00;97927.94;4934177;28;20293;-61
2023/09/24 07:06:04;;;;;;;8.30;3.53;;;;;;;7.82;100.00;97917.13;4939592;28;20200;-62
2023/09/24 07:08:33;;;;;;;3.00;2.90;;;;;;;8.01;100.00;97920.63;4937468;28;20245;-59
2023/09/24 07:11:23;;;;;;;2.90;2.80;;;;;;;8.04;100.00;97926.44;4938241;28;20203;-61
2023/09/24 07:13:51;;;;;;;3.87;3.20;;;;;;;7.85;100.00;97921.28;4936044;28;20863;-59
2023/09/24 07:16:23;;;;;;;5.47;3.37;;;;;;;7.87;100.00;97929.88;4940590;28;20223;-58
2023/09/24 07:18:51;;;;;;;4.80;3.03;;;;;;;7.87;100.00;97935.97;4880555;28;20207;-59
2023/09/24 07:21:20;;;;;;;6.57;3.53;;;;;;;7.88;100.00;97936.81;4941402;28;20214;-60
2023/09/24 07:24:02;;;;;;;6.07;3.20;;;;;;;7.92;100.00;97940.81;4866287;28;20698;-60
2023/09/24 07:26:30;;;;;;;3.10;2.90;;;;;;;8.02;100.00;97946.88;4931253;28;20721;-59
2023/09/24 07:28:59;;;;;;;3.50;3.40;;;;;;;8.20;100.00;97943.44;4895050;28;20215;-59
2023/09/24 07:31:29;;;;;;;3.70;3.40;;;;;;;8.39;100.00;97942.44;4938970;28;20277;-57
2023/09/24 07:33:59;;;;;;;3.47;3.33;;;;;;;8.61;100.00;97937.69;4935271;28;20198;-60
2023/09/24 07:36:29;;;;;;;3.10;3.00;;;;;;;8.60;100.00;97944.81;4928896;28;20274;-60
2023/09/24 07:39:03;;;;;;;3.27;3.17;;;;;;;8.44;100.00;97939.34;4894888;28;20207;-59
2023/09/24 07:41:31;;;;;;;3.33;3.13;;;;;;;8.46;100.00;97940.00;4926758;28;20199;-59
2023/09/24 07:43:59;;;;;;;3.80;3.43;;;;;;;8.48;100.00;97938.06;4896637;28;20218;-59
2023/09/24 07:46:28;;;;;;;3.37;3.20;;;;;;;8.57;100.00;97937.19;4936320;28;20236;-59
2023/09/24 07:48:56;;;;;;;4.17;3.87;;;;;;;8.84;100.00;97948.59;4933694;28;20273;-60
2023/09/24 07:51:24;;;;;;;3.80;3.60;;;;;;;9.07;100.00;97954.22;4937016;28;20632;-60
2023/09/24 07:53:52;;;;;;;3.70;3.50;;;;;;;9.36;100.00;97944.31;4891929;28;20207;-58
2023/09/24 07:56:19;;;;;;;3.83;3.63;;;;;;;9.45;100.00;97945.16;4936228;28;20954;-60
2023/09/24 07:58:47;;;;;;;3.27;3.17;;;;;;;9.59;100.00;97946.38;4870796;28;20237;-60
2023/09/24 08:01:15;;;;;;;3.50;3.30;;;;;;;9.68;100.00;97950.75;4937525;28;20796;-58
2023/09/24 08:03:45;;;;;;;3.53;3.37;;;;;;;9.84;100.00;97956.09;4933914;28;20237;-59
2023/09/24 08:06:14;;;;;;;3.70;3.50;;;;;;;9.91;100.00;97951.00;4940738;28;20258;-58
2023/09/24 08:08:41;;;;;;;3.60;3.30;;;;;;;9.94;100.00;97952.47;4932141;28;20203;-58
2023/09/24 08:11:12;;;;;;;3.53;3.33;;;;;;;10.06;100.00;97948.56;4937587;28;20899;-60
2023/09/24 08:13:39;;;;;;;3.83;3.63;;;;;;;9.97;100.00;97952.16;4933037;28;20832;-59
2023/09/24 08:16:07;;;;;;;3.70;3.50;;;;;;;10.13;100.00;97946.91;4938054;28;20325;-61
2023/09/24 08:18:35;;;;;;;3.97;3.70;;;;;;;10.35;100.00;97946.44;4883552;28;20287;-61
2023/09/24 08:21:04;;;;;;;3.67;3.47;;;;;;;10.52;100.00;97944.69;4937414;28;20203;-58
2023/09/24 08:23:32;;;;;;;3.87;3.67;;;;;;;10.52;100.00;97945.50;4880421;28;20211;-60
2023/09/24 08:26:00;;;;;;;3.83;3.53;;;;;;;10.71;100.00;97949.63;4939301;28;20219;-61
2023/09/24 08:28:28;;;;;;;3.80;3.60;;;;;;;10.76;100.00;97949.16;4897414;28;20377;-60
2023/09/24 08:30:55;;;;;;;3.60;3.40;;;;;;;10.84;100.00;97948.31;4938439;28;20215;-62
2023/09/24 08:33:23;;;;;;;3.97;3.70;;;;;;;10.77;100.00;97945.50;4865279;28;20301;-61
2023/09/24 08:35:50;;;;;;;3.90;3.70;;;;;;;11.08;100.00;97939.50;4936452;28;20230;-60
2023/09/24 08:38:21;;;;;;;4.50;4.00;;;;;;;11.22;100.00;97940.63;4930511;28;20686;-61
2023/09/24 08:40:48;;;;;;;4.23;3.93;;;;;;;11.36;100.00;97939.09;4887095;28;20234;-60
2023/09/24 08:43:17;;;;;;;4.10;3.90;;;;;;;11.47;100.00;97945.03;4938938;28;20213;-60
2023/09/24 08:45:45;;;;;;;4.30;4.03;;;;;;;11.64;100.00;97941.31;4932837;28;20239;-60
2023/09/24 08:48:14;;;;;;;3.97;3.70;;;;;;;11.89;100.00;97946.53;4938888;28;20289;-61
2023/09/24 08:50:43;;;;;;;4.77;4.37;;;;;;;12.06;100.00;97942.00;4886727;28;20223;-61
2023/09/24 08:53:12;;;;;;;4.57;3.53;;;;;;;12.07;100.00;97943.66;4937442;28;20203;-61
2023/09/24 08:55:45;;;;;;;3.60;3.40;;;;;;;12.14;100.00;97941.94;4934251;28;20230;-60
2023/09/24 08:58:12;;;;;;;3.97;3.33;;;;;;;12.33;100.00;97937.19;4940114;28;20321;-59
2023/09/24 09:00:42;;;;;;;4.13;3.77;;;;;;;12.52;100.00;97938.53;4887073;28;20673;-59
2023/09/24 09:03:10;;;;;;;3.40;3.17;;;;;;;12.52;100.00;97937.72;4938482;28;20667;-59
2023/09/24 09:05:38;;;;;;;3.67;3.13;;;;;;;12.60;100.00;97940.28;4837412;28;20306;-58
2023/09/24 09:08:07;;;;;;;3.40;3.20;;;;;;;12.63;100.00;97939.94;4939304;28;20239;-58
2023/09/24 09:10:37;;;;;;;4.60;4.20;;;;;;;12.68;100.00;97940.22;4931226;28;20298;-59
2023/09/24 09:13:08;;;;;;;3.07;2.97;;;;;;;12.68;100.00;97937.56;4936161;28;20207;-58
2023/09/24 09:15:37;;;;;;;4.10;3.60;;;;;;;12.78;100.00;97941.81;4931441;28;20891;-59
2023/09/24 09:18:05;;;;;;;3.77;3.40;;;;;;;12.86;100.00;97934.59;4939003;28;20282;-58
2023/09/24 09:20:40;;;;;;;5.37;4.87;;;;;;;12.92;100.00;97941.03;4887155;28;20206;-60
2023/09/24 09:23:11;;;;;;;3.33;3.13;;;;;;;13.12;100.00;97928.03;4935455;28;20777;-59
2023/09/24 09:25:50;;;;;;;3.80;3.50;;;;;;;13.21;100.00;97928.78;4933516;28;20294;-57
2023/09/24 09:28:23;;;;;;;2.63;2.43;;;;;;;13.18;100.00;97929.97;4938220;28;20602;-60
2023/09/24 09:31:01;;;;;;;3.50;3.20;;;;;;;13.37;100.00;97926.94;4932855;28;20298;-56
2023/09/24 09:33:30;;;;;;;3.07;2.87;;;;;;;13.36;100.00;97920.81;4934548;28;20674;-58
2023/09/24 09:35:58;;;;;;;3.20;3.00;;;;;;;13.56;100.00;97928.25;4896953;28;20227;-57
2023/09/24 09:38:30;;;;;;;2.80;2.70;;;;;;;13.78;100.00;97928.31;4917283;28;20230;-57
2023/09/24 09:40:59;;;;;;;2.97;2.77;;;;;;;13.91;100.00;97933.00;4887500;28;20736;-59
2023/09/24 09:43:30;;;;;;;2.37;2.27;;;;;;;14.08;100.00;97929.06;4940719;28;20214;-61
2023/09/24 09:45:58;;;;;;;2.93;2.73;;;;;;;14.15;100.00;97926.50;4939103;28;20765;-58
2023/09/24 09:48:30;;;;;;;1.93;1.83;;;;;;;14.23;100.00;97929.03;4940254;28;21235;-60
2023/09/24 09:51:02;;;;;;;2.70;2.50;;;;;;;14.34;100.00;97930.38;4880878;28;20202;-63
2023/09/24 09:53:33;;;;;;;2.40;2.20;;;;;;;14.42;100.00;97932.91;4911659;28;21059;-60
2023/09/24 09:56:05;;;;;;;2.03;1.80;;;;;;;14.40;100.00;97924.28;4917786;28;20760;-59
2023/09/24 09:58:36;;;;;;;3.33;2.47;;;;;;;14.59;100.00;97924.69;4930776;28;20230;-62
2023/09/24 10:01:05;;;;;;;1.90;1.70;;;;;;;14.62;100.00;97919.75;4939557;28;20207;-61
2023/09/24 10:03:34;;;;;;;1.87;1.77;;;;;;;14.48;100.00;97920.69;4937437;28;20310;-61
2023/09/24 10:06:04;;;;;;;1.73;1.63;;;;;;;14.58;100.00;97925.66;4891907;28;20211;-61
2023/09/24 10:08:38;;;;;;;2.73;1.70;;;;;;;14.63;100.00;97917.94;4901487;28;20946;-59
2023/09/24 10:11:06;;;;;;;1.70;1.60;;;;;;;14.57;100.00;97926.69;4928684;28;20805;-60
2023/09/24 10:17:19;;;;;;;1.50;1.33;;;;;;;14.73;100.00;97925.63;5599231;23;20454;-58
2023/09/24 10:19:53;;;;;;;3.53;1.90;;;;;;;14.62;100.00;97911.75;4891866;29;21236;-62
2023/09/24 10:22:29;;;;;;;2.53;2.37;;;;;;;14.70;100.00;97896.63;4876669;29;20664;-58
2023/09/24 10:24:57;;;;;;;1.60;1.50;;;;;;;14.76;100.00;97904.72;4910448;29;21478;-62
2023/09/24 10:27:26;;;;;;;3.50;1.63;;;;;;;14.95;100.00;97909.59;4856675;29;20227;-60
2023/09/24 10:30:01;;;;;;;2.43;2.07;;;;;;;15.05;100.00;97905.56;4911249;29;20415;-61
2023/09/24 10:32:29;;;;;;;2.10;2.00;;;;;;;15.25;100.00;97910.19;4917152;29;20214;-61
2023/09/24 10:35:12;;;;;;;2.83;2.53;;;;;;;15.33;100.00;97909.22;4917509;29;20990;-59
2023/09/24 10:38:02;;;;;;;2.73;2.17;;;;;;;15.40;100.00;97914.59;4865629;29;20314;-61
2023/09/24 10:40:34;;;;;;;3.17;2.00;;;;;;;15.18;100.00;97910.16;4919991;29;20212;-60
2023/09/24 10:43:18;;;;;;;1.77;1.67;;;;;;;15.08;100.00;97908.88;4916924;29;20204;-61
2023/09/24 10:45:48;;;;;;;2.27;2.10;;;;;;;15.08;100.00;97907.00;4922355;29;20216;-60
2023/09/24 10:48:17;;;;;;;2.23;2.07;;;;;;;15.08;100.00;97892.84;4819855;29;20659;-63
2023/09/24 10:50:46;;;;;;;2.50;1.57;;;;;;;15.21;100.00;97910.81;4920762;29;20434;-59
2023/09/24 10:53:19;;;;;;;1.83;1.17;;;;;;;15.22;100.00;97907.91;4864882;29;20216;-62
2023/09/24 10:55:47;;;;;;;1.40;1.30;;;;;;;15.09;100.00;97894.50;4920652;29;20299;-61
2023/09/24 10:58:34;;;;;;;1.47;1.40;;;;;;;15.23;100.00;97895.41;4917333;29;20265;-61
2023/09/24 11:01:02;;;;;;;3.67;1.70;;;;;;;15.34;100.00;97898.34;4918689;29;20207;-59
2023/09/24 11:03:34;;;;;;;1.90;1.80;;;;;;;15.37;100.00;97899.78;4863950;29;20239;-59
2023/09/24 11:06:04;;;;;;;2.30;2.20;;;;;;;15.27;100.00;97900.13;4918581;29;20214;-61
2023/09/24 11:08:32;;;;;;;2.63;2.17;;;;;;;15.47;100.00;97894.09;4872143;29;20216;-62
2023/09/24 11:10:59;;;;;;;2.33;2.07;;;;;;;15.51;100.00;97895.34;4920977;29;20270;-63
2023/09/24 11:13:27;;;;;;;1.50;1.27;;;;;;;15.62;100.00;97900.13;4917629;29;20329;-63
2023/09/24 11:15:55;;;;;;;2.13;1.83;;;;;;;15.75;100.00;97898.53;4918820;29;20236;-61
2023/09/24 11:18:25;;;;;;;2.50;2.30;;;;;;;15.75;100.00;97893.19;4802302;29;20231;-61
2023/09/24 11:20:53;;;;;;;1.33;1.30;;;;;;;15.88;100.00;97893.25;4921688;29;20214;-60
2023/09/24 11:23:22;;;;;;;2.30;2.20;;;;;;;15.68;100.00;97889.66;4870800;29;20221;-61
2023/09/24 11:25:51;;;;;;;1.83;1.67;;;;;;;15.77;100.00;97883.94;4919536;29;20211;-60
2023/09/24 11:28:23;;;;;;;1.30;1.20;;;;;;;15.50;100.00;97864.31;4912217;29;20264;-60
2023/09/24 11:30:52;;;;;;;1.13;1.13;;;;;;;15.83;100.00;97876.16;4920532;29;20210;-64
2023/09/24 11:33:21;;;;;;;1.40;1.30;;;;;;;15.88;100.00;97887.91;4866972;29;20969;-62
2023/09/24 11:35:50;;;;;;;2.23;1.63;;;;;;;15.95;99.71;97879.94;4917498;29;20231;-62
2023/09/24 11:38:29;;;;;;;1.30;1.20;;;;;;;15.83;97.89;97876.16;4873709;29;20250;-62
2023/09/24 11:41:06;;;;;;;1.10;1.07;;;;;;;15.91;100.00;97868.00;4916683;29;20718;-59
2023/09/24 11:43:35;;;;;;;2.40;1.50;;;;;;;16.03;100.00;97885.09;4911987;29;20211;-62
2023/09/24 11:46:03;;;;;;;1.10;1.10;;;;;;;16.01;99.20;97881.78;4915868;29;20215;-61